Latest Weather Observations for Nullo Mountain

IDN60801

Issued at 6:22 am EDT Monday 3 October 2022 (issued every 10 minutes, with the page automatically refreshed every 10 minutes)

About weather observations | Map of weather stations | Latest weather observations for NSW | Other Formats
Station Details ID: 062100 Name: NULLO MOUNTAIN AWS Lat: -32.72 Lon: 150.23 Height: 1130.0 m
Data from the previous 72 hours. | See also: Recent months at Nullo Mountain
Date/Time
EDT
Temp
°C
App
Temp
°C
Dew
Point
°C
Rel
Hum
%
Delta-T
°C
Wind Press
QNH
hPa
Press
MSL
hPa
Rain since
9am
mm
Dir  Spd
km/h
Gust
km/h
Spd
kts
Gust
kts
02/03:30pm 11.1 8.3 2.9 57 3.8 SSW 7 13 4 7 - - 0.0
02/03:00pm 11.1 7.8 2.7 56 3.9 SSW 9 17 5 9 - - 0.0
02/02:30pm 11.8 8.7 3.8 58 3.8 SSE 9 15 5 8 - - 0.0
02/02:00pm 10.4 7.2 3.2 61 3.4 SSE 9 17 5 9 - - 0.0
02/01:30pm 10.4 7.6 3.2 61 3.4 WSW 7 13 4 7 - - 0.0
02/01:00pm 9.9 7.3 4.1 67 2.7 SSW 7 13 4 7 - - 0.0
02/12:30pm 9.9 7.0 4.5 69 2.6 SSW 9 13 5 7 - - 0.0
02/12:00pm 9.8 6.9 4.8 71 2.4 SSW 9 13 5 7 - - 0.0
02/11:30am 8.6 6.0 3.4 70 2.4 W 6 11 3 6 - - 0.0
02/11:00am 8.3 5.7 3.2 70 2.3 W 6 13 3 7 - - 0.0
02/10:30am 8.1 6.2 5.0 81 1.5 ENE 4 9 2 5 - - 0.0
02/10:00am 7.1 5.3 5.3 88 0.9 NE 4 9 2 5 - - 0.0
02/09:30am 6.3 3.4 6.3 100 0.0 ESE 11 17 6 9 - - 0.0
02/09:00am 5.5 2.0 5.4 99 0.0 ESE 13 19 7 10 - - 0.6
02/08:30am 4.9 0.9 4.9 100 0.0 ESE 15 22 8 12 - - 0.6
02/08:00am 4.4 0.7 4.4 100 0.0 ESE 13 19 7 10 - - 0.6
02/07:30am 4.0 0.6 4.0 100 0.0 ESE 11 17 6 9 - - 0.6
02/07:00am 3.9 -0.3 3.9 100 0.0 ESE 15 24 8 13 - - 0.6
02/06:30am 3.8 0.0 3.8 100 0.0 ESE 13 19 7 10 - - 0.6
02/06:00am 3.9 -0.3 3.9 100 0.0 E 15 19 8 10 - - 0.6
02/05:30am 3.9 -0.3 3.9 100 0.0 E 15 20 8 11 - - 0.6
02/05:00am 3.9 -1.0 3.9 100 0.0 E 19 24 10 13 - - 0.6
02/04:30am 3.9 -0.7 3.9 100 0.0 E 17 22 9 12 - - 0.6
02/04:00am 3.7 -1.3 3.7 100 0.0 E 19 28 10 15 - - 0.6
02/03:30am 4.0 -0.5 4.0 100 0.0 ESE 17 22 9 12 - - 0.6
02/03:00am 4.1 -0.4 4.1 100 0.0 E 17 22 9 12 - - 0.6
02/01:30am 4.3 -0.6 4.3 100 0.0 ESE 19 26 10 14 - - 0.6
02/01:00am 4.4 0.7 4.4 100 0.0 ESE 13 24 7 13 - - 0.4
02/12:30am 4.5 -0.5 4.5 100 0.0 ESE 20 30 11 16 - - 0.4
02/12:00am 4.4 -1.4 4.4 100 0.0 ESE 24 33 13 18 - - 0.4
 
Date/Time
EDT
Temp
°C
App
Temp
°C
Dew
Point
°C
Rel
Hum
%
Delta-T
°C
Wind Press
QNH
hPa
Press
MSL
hPa
Rain since
9am
mm
Dir  Spd
km/h
Gust
km/h
Spd
kts
Gust
kts
01/11:30pm 4.4 -1.4 4.4 100 0.0 ESE 24 35 13 19 - - 0.4
01/11:00pm 4.6 -0.8 4.6 100 0.0 ESE 22 30 12 16 - - 0.4
01/10:30pm 4.6 -1.5 4.6 100 0.0 ESE 26 35 14 19 - - 0.4
01/10:00pm 4.8 0.0 4.8 100 0.0 ESE 19 26 10 14 - - 0.2
01/09:30pm 4.8 -0.5 4.8 100 0.0 ESE 22 35 12 19 - - 0.0
01/09:00pm 4.9 -0.4 4.9 100 0.0 ESE 22 35 12 19 - - 0.0
01/08:30pm 4.9 -0.4 4.9 100 0.0 ESE 22 37 12 20 - - 0.0
01/08:00pm 5.0 0.1 5.0 100 0.0 ESE 20 35 11 19 - - 0.0
01/07:30pm 4.9 0.1 4.9 100 0.0 ESE 19 35 10 19 - - 0.0
01/07:00pm 5.3 0.1 5.3 100 0.0 ESE 22 35 12 19 - - 0.0
01/06:30pm 5.2 0.5 5.2 100 0.0 ESE 19 30 10 16 - - 0.0
01/06:00pm 5.3 1.0 5.3 100 0.0 ESE 17 26 9 14 - - 0.0
01/05:30pm 5.7 1.5 5.7 100 0.0 ESE 17 22 9 12 - - 0.0
01/05:00pm 6.4 2.3 6.4 100 0.0 ESE 17 26 9 14 - - 0.0
01/04:30pm 6.7 3.1 6.7 100 0.0 ESE 15 26 8 14 - - 0.0
01/04:00pm 8.8 4.8 6.6 86 1.1 ESE 17 22 9 12 - - 0.0
01/03:30pm 9.0 5.1 5.2 77 1.8 ESE 15 28 8 15 - - 0.0
01/03:00pm 9.6 6.0 6.7 82 1.4 ESE 15 24 8 13 - - 0.0
01/02:30pm 8.4 4.6 5.7 83 1.3 ESE 15 24 8 13 - - 0.0
01/02:00pm 9.9 6.2 6.1 77 1.9 ESE 15 24 8 13 - - 0.0
01/01:30pm 9.7 5.5 5.5 75 2.0 ESE 17 24 9 13 - - 0.0
01/01:00pm 9.6 5.0 5.6 76 2.0 ESE 19 30 10 16 - - 0.0
01/12:30pm 9.5 5.1 6.4 81 1.5 ESE 19 28 10 15 - - 0.0
01/12:00pm 8.5 4.2 5.4 81 1.5 ESE 17 26 9 14 - - 0.0
01/11:30am 8.9 4.4 6.3 84 1.3 ESE 19 32 10 17 - - 0.0
01/11:00am 7.8 3.0 5.6 86 1.1 ESE 20 30 11 16 - - 0.0
01/10:30am 7.5 2.5 4.5 81 1.4 ESE 20 33 11 18 - - 0.0
01/10:00am 8.0 3.2 5.5 84 1.2 ESE 20 35 11 19 - - 0.0
01/09:30am 7.3 1.4 5.9 91 0.7 ESE 26 37 14 20 - - 0.0
01/09:00am 7.1 1.6 5.9 92 0.6 ESE 24 37 13 20 - - 3.8
01/08:30am 6.4 1.0 6.4 100 0.0 ESE 24 33 13 18 - - 3.8
01/08:00am 6.0 0.5 6.0 100 0.0 ESE 24 35 13 19 - - 3.8
01/07:30am 5.4 -0.2 5.4 100 0.0 ESE 24 33 13 18 - - 3.8
01/07:00am 5.2 -0.8 5.2 100 0.0 ESE 26 39 14 21 - - 3.8
01/06:30am 5.3 -0.3 5.3 100 0.0 ESE 24 33 13 18 - - 3.6
01/06:00am 5.2 -0.4 5.2 100 0.0 SE 24 33 13 18 - - 3.6
01/05:30am 5.1 -0.9 5.1 100 0.0 ESE 26 39 14 21 - - 3.6
01/05:00am 5.1 -0.6 5.1 100 0.0 ESE 24 37 13 20 - - 3.6
01/04:30am 5.2 -0.1 5.2 100 0.0 SE 22 33 12 18 - - 3.6
01/04:00am 5.2 -0.4 5.2 100 0.0 SE 24 33 13 18 - - 3.6
01/03:30am 5.0 -0.7 5.0 100 0.0 ESE 24 39 13 21 - - 3.6
01/03:00am 5.1 -0.2 5.1 100 0.0 ESE 22 35 12 19 - - 3.6
01/02:30am 5.4 0.2 5.4 100 0.0 ESE 22 33 12 18 - - 3.6
01/02:00am 6.0 1.9 6.0 100 0.0 ESE 17 30 9 16 - - 3.4
01/01:30am 5.9 0.8 5.9 100 0.0 ESE 22 35 12 19 - - 3.4
01/01:00am 6.2 2.1 6.2 100 0.0 ESE 17 26 9 14 - - 2.8
01/12:30am 6.3 1.7 6.3 100 0.0 ESE 20 33 11 18 - - 2.0
01/12:00am 6.2 0.8 6.2 100 0.0 ESE 24 41 13 22 - - 1.8
 
Date/Time
EDT
Temp
°C
App
Temp
°C
Dew
Point
°C
Rel
Hum
%
Delta-T
°C
Wind Press
QNH
hPa
Press
MSL
hPa
Rain since
9am
mm
Dir  Spd
km/h
Gust
km/h
Spd
kts
Gust
kts
30/11:30pm 6.4 1.8 6.4 100 0.0 SE 20 32 11 17 - - 1.8
30/11:00pm 6.7 2.1 6.7 100 0.0 ESE 20 32 11 17 - - 1.8
30/10:30pm 7.0 2.1 7.0 100 0.0 ESE 22 35 12 19 - - 1.4
30/10:00pm 7.1 3.6 7.1 100 0.0 ESE 15 24 8 13 - - 0.6
30/09:30pm 7.0 2.7 7.0 100 0.0 ESE 19 28 10 15 - - 0.6
30/09:00pm 7.0 2.7 7.0 100 0.0 ESE 19 30 10 16 - - 0.6
30/08:30pm 7.2 4.1 7.2 100 0.0 SE 13 19 7 10 - - 0.4
30/08:00pm 7.3 4.6 7.3 100 0.0 SE 11 17 6 9 - - 0.4
30/07:30pm 7.6 3.8 7.6 100 0.0 SE 17 28 9 15 - - 0.0
30/07:00pm 7.5 2.4 7.5 100 0.0 SE 24 35 13 19 - - 0.0
30/06:30pm 7.8 3.5 7.8 100 0.0 SE 20 33 11 18 - - 0.0
30/06:00pm 8.1 4.8 8.1 100 0.0 SE 15 28 8 15 - - 0.0
30/05:30pm 8.7 5.4 7.9 95 0.4 SE 15 22 8 12 - - 0.0
30/05:00pm 9.0 6.3 9.0 100 0.0 ESE 13 19 7 10 - - 0.0
30/04:30pm 9.8 6.7 7.4 85 1.2 ESE 13 20 7 11 - - 0.0
30/04:00pm 9.7 6.2 7.1 84 1.3 SSE 15 28 8 15 - - 0.0
30/03:30pm 9.8 5.9 7.1 83 1.4 SSE 17 28 9 15 - - 0.0
30/03:00pm 10.8 6.3 6.9 77 2.0 SE 20 30 11 16 - - 0.0
30/02:30pm 9.9 5.4 7.0 82 1.5 SE 20 33 11 18 - - 0.0
30/02:00pm 10.4 6.6 7.5 82 1.5 SSE 17 28 9 15 - - 0.0
30/01:30pm 10.5 7.1 9.3 92 0.6 SE 17 28 9 15 - - 0.0
30/01:00pm 10.8 6.9 6.9 77 2.0 ESE 17 28 9 15 - - 0.0
30/12:30pm 10.4 5.5 6.9 79 1.8 SE 22 33 12 18 - - 0.0
30/12:00pm 10.8 6.4 7.3 79 1.8 SE 20 39 11 21 - - 0.0
30/11:30am 10.2 5.9 8.0 86 1.1 SE 20 33 11 18 - - 0.0
30/11:00am 9.3 5.4 7.1 86 1.1 SE 17 30 9 16 - - 0.0
30/10:30am 9.9 4.7 7.3 84 1.3 SE 24 33 13 18 - - 0.0
30/10:00am 9.5 4.8 7.8 89 0.9 SE 22 43 12 23 - - 0.0
30/09:34am 9.2 3.3 7.6 90 0.8 SE 28 48 15 26 - - 0.0
30/09:30am 8.5 3.2 6.6 88 0.9 SE 24 44 13 24 - - 0.0
30/09:01am 7.9 2.0 7.3 96 0.3 SE 28 46 15 25 - - 0.0
30/09:00am 7.9 1.6 7.3 96 0.3 SE 30 46 16 25 - - 2.6
30/08:30am 7.8 2.4 7.8 100 0.0 SSE 26 46 14 25 - - 2.6
30/08:00am 7.2 1.6 7.2 100 0.0 SE 26 41 14 22 - - 2.6
30/07:30am 6.6 1.3 6.6 100 0.0 SSE 24 44 13 24 - - 2.6
30/07:00am 6.7 2.1 6.7 100 0.0 SSE 20 33 11 18 - - 2.6
30/06:30am 6.9 2.4 6.9 100 0.0 SSE 20 35 11 19 - - 2.6
30/06:00am 6.8 2.3 6.8 100 0.0 SSE 20 33 11 18 - - 2.6
30/05:30am 6.8 1.9 6.8 100 0.0 SSE 22 33 12 18 - - 2.6

Other formats

Comma delimited format used in spreadsheet applications
http://www.bom.gov.au/fwo/IDN60801/IDN60801.94754.axf

JavaScript Object Notation format (JSON) in row-major order
http://www.bom.gov.au/fwo/IDN60801/IDN60801.94754.json

Data quality

Most of these data are generated automatically and are frequently updated. Quality checks on data are not normally performed. It is possible for incorrect values to appear. Refer to information at About Latest Weather Observations and please check the disclaimer before using these data.